sensor_id;sensor_type;location;lat;lon;timestamp;pressure;altitude;pressure_sealevel;temperature;humidity
48089;BME280;33867;50.314;7.802;2023-02-23T00:02:15;100050.09;;;7.53;nan
48089;BME280;33867;50.314;7.802;2023-02-23T00:05:35;100043.69;;;7.65;nan
48089;BME280;33867;50.314;7.802;2023-02-23T00:08:55;100047.41;;;7.74;nan
48089;BME280;33867;50.314;7.802;2023-02-23T00:12:16;100054.03;;;7.70;nan
48089;BME280;33867;50.314;7.802;2023-02-23T00:15:35;100047.22;;;7.45;nan
48089;BME280;33867;50.314;7.802;2023-02-23T00:18:56;100045.47;;;7.34;nan
48089;BME280;33867;50.314;7.802;2023-02-23T00:22:17;100048.84;;;7.57;nan
48089;BME280;33867;50.314;7.802;2023-02-23T00:25:37;100049.31;;;7.62;nan
48089;BME280;33867;50.314;7.802;2023-02-23T00:28:57;100040.88;;;7.46;nan
48089;BME280;33867;50.314;7.802;2023-02-23T00:32:17;100041.69;;;7.37;nan
48089;BME280;33867;50.314;7.802;2023-02-23T00:35:39;100035.72;;;7.54;nan
48089;BME280;33867;50.314;7.802;2023-02-23T00:39:08;100044.88;;;7.30;nan
48089;BME280;33867;50.314;7.802;2023-02-23T00:42:45;100034.09;;;7.42;nan
48089;BME280;33867;50.314;7.802;2023-02-23T00:46:04;100041.06;;;7.54;nan
48089;BME280;33867;50.314;7.802;2023-02-23T00:49:24;100039.00;;;7.37;nan
48089;BME280;33867;50.314;7.802;2023-02-23T00:52:43;100036.06;;;7.60;nan
48089;BME280;33867;50.314;7.802;2023-02-23T00:56:04;100036.53;;;7.75;nan
48089;BME280;33867;50.314;7.802;2023-02-23T00:59:23;100038.50;;;7.73;nan
48089;BME280;33867;50.314;7.802;2023-02-23T01:02:43;100035.78;;;7.63;nan
48089;BME280;33867;50.314;7.802;2023-02-23T01:06:04;100038.66;;;7.51;nan
48089;BME280;33867;50.314;7.802;2023-02-23T01:09:24;100046.16;;;7.57;nan
48089;BME280;33867;50.314;7.802;2023-02-23T01:12:50;100029.00;;;7.59;nan
48089;BME280;33867;50.314;7.802;2023-02-23T01:16:12;100032.59;;;7.49;nan
48089;BME280;33867;50.314;7.802;2023-02-23T01:19:31;100034.28;;;7.50;nan
48089;BME280;33867;50.314;7.802;2023-02-23T01:22:51;100034.66;;;7.66;nan
48089;BME280;33867;50.314;7.802;2023-02-23T01:26:18;100030.84;;;7.69;nan
48089;BME280;33867;50.314;7.802;2023-02-23T01:29:37;100027.09;;;7.71;nan
48089;BME280;33867;50.314;7.802;2023-02-23T01:32:56;100040.91;;;7.76;nan
48089;BME280;33867;50.314;7.802;2023-02-23T01:36:15;100032.47;;;7.81;nan
48089;BME280;33867;50.314;7.802;2023-02-23T01:39:34;100031.28;;;7.64;nan
48089;BME280;33867;50.314;7.802;2023-02-23T01:43:09;100041.34;;;7.51;nan
48089;BME280;33867;50.314;7.802;2023-02-23T01:46:39;100033.72;;;7.46;nan
48089;BME280;33867;50.314;7.802;2023-02-23T01:49:59;100031.47;;;7.51;nan
48089;BME280;33867;50.314;7.802;2023-02-23T01:53:20;100032.19;;;7.32;nan
48089;BME280;33867;50.314;7.802;2023-02-23T01:56:44;100028.38;;;7.46;nan
48089;BME280;33867;50.314;7.802;2023-02-23T02:00:08;100035.94;;;7.41;nan
48089;BME280;33867;50.314;7.802;2023-02-23T02:03:41;100027.16;;;7.60;nan
48089;BME280;33867;50.314;7.802;2023-02-23T02:07:03;100032.00;;;7.45;nan
48089;BME280;33867;50.314;7.802;2023-02-23T02:10:23;100031.16;;;7.45;nan
48089;BME280;33867;50.314;7.802;2023-02-23T02:13:58;100029.22;;;7.47;nan
48089;BME280;33867;50.314;7.802;2023-02-23T02:17:30;100022.66;;;7.40;nan
48089;BME280;33867;50.314;7.802;2023-02-23T02:21:31;100019.91;;;7.51;nan
48089;BME280;33867;50.314;7.802;2023-02-23T02:25:17;100016.03;;;7.65;nan
48089;BME280;33867;50.314;7.802;2023-02-23T02:29:08;100015.19;;;7.64;nan
48089;BME280;33867;50.314;7.802;2023-02-23T02:40:33;100010.09;;;7.61;nan
48089;BME280;33867;50.314;7.802;2023-02-23T02:44:21;100007.59;;;7.69;nan
48089;BME280;33867;50.314;7.802;2023-02-23T02:47:53;100010.06;;;7.82;nan
48089;BME280;33867;50.314;7.802;2023-02-23T02:51:31;100003.72;;;7.52;nan
48089;BME280;33867;50.314;7.802;2023-02-23T02:55:02;99997.38;;;7.53;nan
48089;BME280;33867;50.314;7.802;2023-02-23T02:58:28;99996.50;;;7.53;nan
48089;BME280;33867;50.314;7.802;2023-02-23T03:01:47;99992.50;;;7.38;nan
48089;BME280;33867;50.314;7.802;2023-02-23T03:09:36;99988.28;;;7.45;nan
48089;BME280;33867;50.314;7.802;2023-02-23T03:13:35;99993.06;;;7.41;nan
48089;BME280;33867;50.314;7.802;2023-02-23T03:17:36;99997.84;;;7.38;nan
48089;BME280;33867;50.314;7.802;2023-02-23T03:21:33;99997.16;;;7.66;nan
48089;BME280;33867;50.314;7.802;2023-02-23T03:25:13;99999.34;;;7.82;nan
48089;BME280;33867;50.314;7.802;2023-02-23T03:29:06;100002.41;;;7.77;nan
48089;BME280;33867;50.314;7.802;2023-02-23T03:32:54;100009.34;;;7.80;nan
48089;BME280;33867;50.314;7.802;2023-02-23T03:36:38;100003.44;;;7.86;nan
48089;BME280;33867;50.314;7.802;2023-02-23T03:40:25;99995.31;;;7.67;nan
48089;BME280;33867;50.314;7.802;2023-02-23T03:44:09;99999.06;;;7.54;nan
48089;BME280;33867;50.314;7.802;2023-02-23T03:47:48;100000.75;;;7.55;nan
48089;BME280;33867;50.314;7.802;2023-02-23T03:51:31;100000.19;;;7.52;nan
48089;BME280;33867;50.314;7.802;2023-02-23T03:55:16;99999.38;;;7.61;nan
48089;BME280;33867;50.314;7.802;2023-02-23T03:58:58;99999.53;;;7.59;nan
48089;BME280;33867;50.314;7.802;2023-02-23T04:02:38;99999.34;;;7.51;nan
48089;BME280;33867;50.314;7.802;2023-02-23T04:06:21;100013.91;;;7.38;nan
48089;BME280;33867;50.314;7.802;2023-02-23T04:10:01;100011.31;;;7.26;nan
48089;BME280;33867;50.314;7.802;2023-02-23T04:13:39;100004.97;;;7.27;nan
48089;BME280;33867;50.314;7.802;2023-02-23T04:17:01;100008.34;;;7.50;nan
48089;BME280;33867;50.314;7.802;2023-02-23T04:20:22;100006.13;;;7.55;nan
48089;BME280;33867;50.314;7.802;2023-02-23T04:23:42;100023.56;;;7.50;nan
48089;BME280;33867;50.314;7.802;2023-02-23T04:27:01;100014.75;;;7.59;nan
48089;BME280;33867;50.314;7.802;2023-02-23T04:30:21;100018.56;;;7.36;nan
48089;BME280;33867;50.314;7.802;2023-02-23T04:33:43;100019.00;;;7.41;nan
48089;BME280;33867;50.314;7.802;2023-02-23T04:37:02;100019.03;;;7.71;nan
48089;BME280;33867;50.314;7.802;2023-02-23T04:40:21;100024.03;;;7.85;nan
48089;BME280;33867;50.314;7.802;2023-02-23T04:43:40;100024.13;;;7.74;nan
48089;BME280;33867;50.314;7.802;2023-02-23T04:46:59;100023.16;;;7.75;nan
48089;BME280;33867;50.314;7.802;2023-02-23T04:50:19;100016.09;;;7.74;nan
48089;BME280;33867;50.314;7.802;2023-02-23T04:53:38;100023.06;;;7.86;nan
48089;BME280;33867;50.314;7.802;2023-02-23T04:56:58;100024.63;;;7.89;nan
48089;BME280;33867;50.314;7.802;2023-02-23T05:00:18;100014.78;;;7.99;nan
48089;BME280;33867;50.314;7.802;2023-02-23T05:03:37;100009.50;;;7.57;nan
48089;BME280;33867;50.314;7.802;2023-02-23T05:06:56;100018.91;;;7.73;nan
48089;BME280;33867;50.314;7.802;2023-02-23T05:10:15;100029.06;;;7.79;nan
48089;BME280;33867;50.314;7.802;2023-02-23T05:13:34;100021.03;;;7.79;nan
48089;BME280;33867;50.314;7.802;2023-02-23T05:16:53;100023.84;;;7.77;nan
48089;BME280;33867;50.314;7.802;2023-02-23T05:20:13;100024.28;;;7.73;nan
48089;BME280;33867;50.314;7.802;2023-02-23T05:23:34;100023.34;;;7.83;nan
48089;BME280;33867;50.314;7.802;2023-02-23T05:26:53;100029.69;;;7.82;nan
48089;BME280;33867;50.314;7.802;2023-02-23T05:30:12;100029.94;;;7.79;nan
48089;BME280;33867;50.314;7.802;2023-02-23T05:33:32;100028.72;;;7.93;nan
48089;BME280;33867;50.314;7.802;2023-02-23T05:36:52;100027.16;;;7.90;nan
48089;BME280;33867;50.314;7.802;2023-02-23T05:40:12;100025.47;;;7.89;nan
48089;BME280;33867;50.314;7.802;2023-02-23T05:43:31;100032.69;;;7.99;nan
48089;BME280;33867;50.314;7.802;2023-02-23T05:46:50;100024.34;;;7.92;nan
48089;BME280;33867;50.314;7.802;2023-02-23T05:50:10;100034.06;;;7.83;nan
48089;BME280;33867;50.314;7.802;2023-02-23T05:53:29;100029.03;;;7.69;nan
48089;BME280;33867;50.314;7.802;2023-02-23T05:56:48;100031.38;;;7.83;nan
48089;BME280;33867;50.314;7.802;2023-02-23T06:00:08;100031.72;;;8.00;nan
48089;BME280;33867;50.314;7.802;2023-02-23T06:03:27;100028.84;;;7.91;nan
48089;BME280;33867;50.314;7.802;2023-02-23T06:06:46;100025.97;;;7.74;nan
48089;BME280;33867;50.314;7.802;2023-02-23T06:10:06;100037.50;;;7.95;nan
48089;BME280;33867;50.314;7.802;2023-02-23T06:13:26;100045.78;;;7.92;nan
48089;BME280;33867;50.314;7.802;2023-02-23T06:16:46;100039.50;;;7.72;nan
48089;BME280;33867;50.314;7.802;2023-02-23T06:20:06;100036.88;;;7.91;nan
48089;BME280;33867;50.314;7.802;2023-02-23T06:23:29;100044.06;;;7.81;nan
48089;BME280;33867;50.314;7.802;2023-02-23T06:26:49;100045.44;;;7.76;nan
48089;BME280;33867;50.314;7.802;2023-02-23T06:30:09;100054.78;;;7.81;nan
48089;BME280;33867;50.314;7.802;2023-02-23T06:33:29;100053.25;;;7.88;nan
48089;BME280;33867;50.314;7.802;2023-02-23T06:36:48;100056.84;;;7.99;nan
48089;BME280;33867;50.314;7.802;2023-02-23T06:40:09;100055.00;;;7.99;nan
48089;BME280;33867;50.314;7.802;2023-02-23T06:43:28;100055.28;;;7.96;nan
48089;BME280;33867;50.314;7.802;2023-02-23T06:46:47;100051.38;;;7.79;nan
48089;BME280;33867;50.314;7.802;2023-02-23T06:50:09;100061.00;;;7.82;nan
48089;BME280;33867;50.314;7.802;2023-02-23T06:53:28;100056.25;;;7.95;nan
48089;BME280;33867;50.314;7.802;2023-02-23T06:56:48;100067.75;;;8.07;nan
48089;BME280;33867;50.314;7.802;2023-02-23T07:00:09;100072.38;;;8.05;nan
48089;BME280;33867;50.314;7.802;2023-02-23T07:03:28;100069.59;;;8.16;nan
48089;BME280;33867;50.314;7.802;2023-02-23T07:06:47;100070.28;;;8.08;nan
48089;BME280;33867;50.314;7.802;2023-02-23T07:10:06;100067.50;;;7.89;nan
48089;BME280;33867;50.314;7.802;2023-02-23T07:13:26;100079.88;;;7.80;nan
48089;BME280;33867;50.314;7.802;2023-02-23T07:16:45;100073.44;;;7.92;nan
48089;BME280;33867;50.314;7.802;2023-02-23T07:20:05;100081.94;;;7.98;nan
48089;BME280;33867;50.314;7.802;2023-02-23T07:23:24;100090.69;;;8.00;nan
48089;BME280;33867;50.314;7.802;2023-02-23T07:26:43;100090.03;;;8.07;nan
48089;BME280;33867;50.314;7.802;2023-02-23T07:30:05;100101.16;;;8.03;nan
48089;BME280;33867;50.314;7.802;2023-02-23T07:33:24;100102.75;;;8.36;nan
48089;BME280;33867;50.314;7.802;2023-02-23T07:36:44;100106.19;;;8.27;nan
48089;BME280;33867;50.314;7.802;2023-02-23T07:40:03;100111.84;;;8.24;nan
48089;BME280;33867;50.314;7.802;2023-02-23T07:43:22;100111.97;;;8.22;nan
48089;BME280;33867;50.314;7.802;2023-02-23T07:46:42;100113.41;;;8.26;nan
48089;BME280;33867;50.314;7.802;2023-02-23T07:50:00;100114.63;;;8.43;nan
48089;BME280;33867;50.314;7.802;2023-02-23T07:53:22;100115.78;;;8.50;nan
48089;BME280;33867;50.314;7.802;2023-02-23T07:56:40;100122.00;;;8.50;nan
48089;BME280;33867;50.314;7.802;2023-02-23T08:00:00;100117.78;;;8.58;nan
48089;BME280;33867;50.314;7.802;2023-02-23T08:03:18;100125.81;;;8.48;nan
48089;BME280;33867;50.314;7.802;2023-02-23T08:06:37;100124.81;;;8.49;nan
48089;BME280;33867;50.314;7.802;2023-02-23T08:09:56;100121.00;;;8.52;nan
48089;BME280;33867;50.314;7.802;2023-02-23T08:13:16;100120.38;;;8.69;nan
48089;BME280;33867;50.314;7.802;2023-02-23T08:16:35;100120.09;;;8.72;nan
48089;BME280;33867;50.314;7.802;2023-02-23T08:19:54;100127.03;;;8.84;nan
48089;BME280;33867;50.314;7.802;2023-02-23T08:23:14;100121.25;;;8.98;nan
48089;BME280;33867;50.314;7.802;2023-02-23T08:26:36;100118.19;;;9.13;nan
48089;BME280;33867;50.314;7.802;2023-02-23T08:29:58;100116.06;;;9.26;nan
48089;BME280;33867;50.314;7.802;2023-02-23T08:33:19;100119.19;;;9.12;nan
48089;BME280;33867;50.314;7.802;2023-02-23T08:36:38;100117.19;;;9.43;nan
48089;BME280;33867;50.314;7.802;2023-02-23T08:39:58;100114.22;;;9.55;nan
48089;BME280;33867;50.314;7.802;2023-02-23T08:43:18;100123.97;;;9.66;nan
48089;BME280;33867;50.314;7.802;2023-02-23T08:46:37;100126.81;;;9.45;nan
48089;BME280;33867;50.314;7.802;2023-02-23T08:49:56;100135.28;;;9.31;nan
48089;BME280;33867;50.314;7.802;2023-02-23T08:53:16;100142.81;;;9.37;nan
48089;BME280;33867;50.314;7.802;2023-02-23T08:56:35;100142.50;;;9.30;nan
48089;BME280;33867;50.314;7.802;2023-02-23T08:59:54;100144.19;;;9.31;nan
48089;BME280;33867;50.314;7.802;2023-02-23T09:03:13;100148.44;;;9.34;nan
48089;BME280;33867;50.314;7.802;2023-02-23T09:06:32;100143.34;;;9.31;nan
48089;BME280;33867;50.314;7.802;2023-02-23T09:09:56;100142.53;;;9.50;nan
48089;BME280;33867;50.314;7.802;2023-02-23T09:13:15;100143.63;;;9.66;nan
48089;BME280;33867;50.314;7.802;2023-02-23T09:16:35;100138.53;;;9.83;nan
48089;BME280;33867;50.314;7.802;2023-02-23T09:19:54;100135.84;;;9.83;nan
48089;BME280;33867;50.314;7.802;2023-02-23T09:23:13;100139.16;;;10.04;nan
48089;BME280;33867;50.314;7.802;2023-02-23T09:26:32;100147.50;;;10.20;nan
48089;BME280;33867;50.314;7.802;2023-02-23T09:29:52;100139.22;;;10.41;nan
48089;BME280;33867;50.314;7.802;2023-02-23T09:33:12;100146.16;;;10.44;nan
48089;BME280;33867;50.314;7.802;2023-02-23T09:36:31;100158.25;;;10.67;nan
48089;BME280;33867;50.314;7.802;2023-02-23T09:39:50;100158.63;;;10.72;nan
48089;BME280;33867;50.314;7.802;2023-02-23T09:43:19;100155.38;;;10.78;nan
48089;BME280;33867;50.314;7.802;2023-02-23T09:50:22;100170.41;;;10.99;nan
48089;BME280;33867;50.314;7.802;2023-02-23T09:53:50;100166.97;;;11.06;nan
48089;BME280;33867;50.314;7.802;2023-02-23T09:57:15;100163.63;;;11.12;nan
48089;BME280;33867;50.314;7.802;2023-02-23T10:00:40;100161.06;;;11.38;nan
48089;BME280;33867;50.314;7.802;2023-02-23T10:04:12;100169.31;;;11.37;nan
48089;BME280;33867;50.314;7.802;2023-02-23T10:08:10;100176.94;;;11.41;nan
48089;BME280;33867;50.314;7.802;2023-02-23T10:11:27;100175.84;;;11.52;nan
48089;BME280;33867;50.314;7.802;2023-02-23T10:19:08;100171.75;;;12.02;nan
48089;BME280;33867;50.314;7.802;2023-02-23T10:22:25;100174.78;;;11.98;nan
48089;BME280;33867;50.314;7.802;2023-02-23T10:25:50;100178.91;;;12.11;nan
48089;BME280;33867;50.314;7.802;2023-02-23T10:29:41;100184.91;;;12.05;nan
48089;BME280;33867;50.314;7.802;2023-02-23T10:33:13;100184.88;;;11.96;nan
48089;BME280;33867;50.314;7.802;2023-02-23T10:36:42;100191.56;;;11.92;nan
48089;BME280;33867;50.314;7.802;2023-02-23T10:40:04;100189.97;;;11.99;nan
48089;BME280;33867;50.314;7.802;2023-02-23T10:43:24;100189.13;;;11.99;nan
48089;BME280;33867;50.314;7.802;2023-02-23T10:46:45;100197.41;;;11.70;nan
48089;BME280;33867;50.314;7.802;2023-02-23T10:50:08;100195.66;;;11.61;nan
48089;BME280;33867;50.314;7.802;2023-02-23T10:53:33;100194.94;;;11.59;nan
48089;BME280;33867;50.314;7.802;2023-02-23T10:56:53;100200.06;;;11.62;nan
48089;BME280;33867;50.314;7.802;2023-02-23T11:03:39;100199.03;;;11.45;nan
48089;BME280;33867;50.314;7.802;2023-02-23T11:07:12;100210.66;;;11.46;nan
48089;BME280;33867;50.314;7.802;2023-02-23T11:10:33;100202.00;;;11.24;nan
48089;BME280;33867;50.314;7.802;2023-02-23T11:13:52;100204.16;;;11.21;nan
48089;BME280;33867;50.314;7.802;2023-02-23T11:17:32;100205.84;;;11.22;nan
48089;BME280;33867;50.314;7.802;2023-02-23T11:20:52;100213.09;;;11.21;nan
48089;BME280;33867;50.314;7.802;2023-02-23T11:24:25;100206.81;;;11.30;nan
48089;BME280;33867;50.314;7.802;2023-02-23T11:27:47;100201.50;;;11.38;nan
48089;BME280;33867;50.314;7.802;2023-02-23T11:31:20;100204.38;;;11.37;nan
48089;BME280;33867;50.314;7.802;2023-02-23T11:34:40;100202.03;;;11.42;nan
48089;BME280;33867;50.314;7.802;2023-02-23T11:38:33;100198.28;;;11.53;nan
48089;BME280;33867;50.314;7.802;2023-02-23T11:42:12;100195.41;;;11.36;nan
48089;BME280;33867;50.314;7.802;2023-02-23T11:45:38;100204.78;;;11.32;nan
48089;BME280;33867;50.314;7.802;2023-02-23T11:49:08;100194.38;;;11.20;nan
48089;BME280;33867;50.314;7.802;2023-02-23T11:52:33;100192.69;;;11.19;nan
48089;BME280;33867;50.314;7.802;2023-02-23T11:55:55;100185.91;;;11.15;nan
48089;BME280;33867;50.314;7.802;2023-02-23T11:59:25;100185.28;;;11.21;nan
48089;BME280;33867;50.314;7.802;2023-02-23T12:02:51;100180.22;;;11.35;nan
48089;BME280;33867;50.314;7.802;2023-02-23T12:06:39;100180.41;;;11.52;nan
48089;BME280;33867;50.314;7.802;2023-02-23T12:10:45;100172.94;;;11.81;nan
48089;BME280;33867;50.314;7.802;2023-02-23T12:13:52;100184.72;;;11.98;nan
48089;BME280;33867;50.314;7.802;2023-02-23T12:17:18;100176.25;;;12.19;nan
48089;BME280;33867;50.314;7.802;2023-02-23T12:20:41;100171.81;;;12.36;nan
48089;BME280;33867;50.314;7.802;2023-02-23T12:27:59;100170.59;;;12.64;nan
48089;BME280;33867;50.314;7.802;2023-02-23T12:31:33;100171.91;;;12.52;nan
48089;BME280;33867;50.314;7.802;2023-02-23T12:35:11;100173.28;;;12.56;nan
48089;BME280;33867;50.314;7.802;2023-02-23T12:39:20;100166.72;;;12.67;nan
48089;BME280;33867;50.314;7.802;2023-02-23T12:43:10;100158.97;;;12.64;nan
48089;BME280;33867;50.314;7.802;2023-02-23T12:46:38;100161.72;;;12.72;nan
48089;BME280;33867;50.314;7.802;2023-02-23T12:50:10;100156.94;;;12.66;nan
48089;BME280;33867;50.314;7.802;2023-02-23T12:53:40;100148.19;;;12.72;nan
48089;BME280;33867;50.314;7.802;2023-02-23T12:57:13;100148.72;;;12.75;nan
48089;BME280;33867;50.314;7.802;2023-02-23T13:00:39;100153.31;;;12.83;nan
48089;BME280;33867;50.314;7.802;2023-02-23T13:04:17;100147.53;;;12.78;nan
48089;BME280;33867;50.314;7.802;2023-02-23T13:08:01;100139.63;;;12.84;nan
48089;BME280;33867;50.314;7.802;2023-02-23T13:15:40;100137.47;;;12.96;nan
48089;BME280;33867;50.314;7.802;2023-02-23T13:19:24;100135.19;;;13.17;nan
48089;BME280;33867;50.314;7.802;2023-02-23T13:26:49;100135.66;;;13.13;nan
48089;BME280;33867;50.314;7.802;2023-02-23T13:30:11;100138.53;;;13.11;nan
48089;BME280;33867;50.314;7.802;2023-02-23T13:33:33;100137.50;;;13.12;nan
48089;BME280;33867;50.314;7.802;2023-02-23T13:36:53;100134.53;;;13.24;nan
48089;BME280;33867;50.314;7.802;2023-02-23T13:40:30;100137.84;;;13.09;nan
48089;BME280;33867;50.314;7.802;2023-02-23T13:44:10;100140.09;;;13.22;nan
48089;BME280;33867;50.314;7.802;2023-02-23T13:47:47;100140.72;;;13.08;nan
48089;BME280;33867;50.314;7.802;2023-02-23T13:51:19;100138.59;;;13.20;nan
48089;BME280;33867;50.314;7.802;2023-02-23T13:54:56;100143.28;;;13.17;nan
48089;BME280;33867;50.314;7.802;2023-02-23T13:58:23;100142.66;;;13.32;nan
48089;BME280;33867;50.314;7.802;2023-02-23T14:01:48;100146.03;;;13.34;nan
48089;BME280;33867;50.314;7.802;2023-02-23T14:05:18;100135.22;;;13.34;nan
48089;BME280;33867;50.314;7.802;2023-02-23T14:08:38;100136.59;;;13.46;nan
48089;BME280;33867;50.314;7.802;2023-02-23T14:12:40;100142.31;;;13.35;nan
48089;BME280;33867;50.314;7.802;2023-02-23T14:16:14;100150.72;;;13.15;nan
48089;BME280;33867;50.314;7.802;2023-02-23T14:19:41;100147.06;;;12.82;nan
48089;BME280;33867;50.314;7.802;2023-02-23T14:34:55;100161.13;;;12.00;nan
48089;BME280;33867;50.314;7.802;2023-02-23T14:38:28;100161.03;;;11.92;nan
48089;BME280;33867;50.314;7.802;2023-02-23T14:41:53;100159.66;;;11.70;nan
48089;BME280;33867;50.314;7.802;2023-02-23T14:45:20;100157.06;;;11.42;nan
48089;BME280;33867;50.314;7.802;2023-02-23T14:48:56;100162.28;;;11.26;nan
48089;BME280;33867;50.314;7.802;2023-02-23T14:52:34;100163.25;;;11.07;nan
48089;BME280;33867;50.314;7.802;2023-02-23T14:55:54;100158.34;;;11.03;nan
48089;BME280;33867;50.314;7.802;2023-02-23T14:59:21;100163.31;;;10.98;nan
48089;BME280;33867;50.314;7.802;2023-02-23T15:03:04;100164.47;;;10.95;nan
48089;BME280;33867;50.314;7.802;2023-02-23T15:06:23;100161.75;;;10.77;nan
48089;BME280;33867;50.314;7.802;2023-02-23T15:09:42;100165.41;;;10.76;nan
48089;BME280;33867;50.314;7.802;2023-02-23T15:13:26;100173.00;;;10.63;nan
48089;BME280;33867;50.314;7.802;2023-02-23T15:16:46;100165.22;;;10.60;nan
48089;BME280;33867;50.314;7.802;2023-02-23T15:20:12;100159.53;;;10.63;nan
48089;BME280;33867;50.314;7.802;2023-02-23T15:23:33;100166.06;;;10.61;nan
48089;BME280;33867;50.314;7.802;2023-02-23T15:26:55;100163.00;;;10.46;nan
48089;BME280;33867;50.314;7.802;2023-02-23T15:30:31;100168.88;;;10.32;nan
48089;BME280;33867;50.314;7.802;2023-02-23T15:33:50;100161.81;;;10.31;nan
48089;BME280;33867;50.314;7.802;2023-02-23T15:37:21;100175.81;;;10.24;nan
48089;BME280;33867;50.314;7.802;2023-02-23T15:40:44;100171.56;;;10.32;nan
48089;BME280;33867;50.314;7.802;2023-02-23T15:44:24;100178.34;;;10.16;nan
48089;BME280;33867;50.314;7.802;2023-02-23T15:47:44;100183.19;;;10.22;nan
48089;BME280;33867;50.314;7.802;2023-02-23T15:51:03;100174.13;;;10.23;nan
48089;BME280;33867;50.314;7.802;2023-02-23T15:54:27;100180.66;;;10.11;nan
48089;BME280;33867;50.314;7.802;2023-02-23T15:57:59;100178.81;;;10.02;nan
48089;BME280;33867;50.314;7.802;2023-02-23T16:01:21;100182.09;;;9.96;nan
48089;BME280;33867;50.314;7.802;2023-02-23T16:04:45;100182.34;;;10.03;nan
48089;BME280;33867;50.314;7.802;2023-02-23T16:08:24;100195.53;;;9.96;nan
48089;BME280;33867;50.314;7.802;2023-02-23T16:18:45;100190.03;;;9.88;nan
48089;BME280;33867;50.314;7.802;2023-02-23T16:22:19;100186.63;;;9.95;nan
48089;BME280;33867;50.314;7.802;2023-02-23T16:25:41;100189.72;;;9.91;nan
48089;BME280;33867;50.314;7.802;2023-02-23T16:29:02;100189.47;;;9.84;nan
48089;BME280;33867;50.314;7.802;2023-02-23T16:32:31;100191.72;;;9.89;nan
48089;BME280;33867;50.314;7.802;2023-02-23T16:39:31;100192.47;;;9.72;nan
48089;BME280;33867;50.314;7.802;2023-02-23T16:42:52;100187.63;;;9.85;nan
48089;BME280;33867;50.314;7.802;2023-02-23T16:46:11;100191.72;;;9.70;nan
48089;BME280;33867;50.314;7.802;2023-02-23T16:49:30;100192.72;;;9.59;nan
48089;BME280;33867;50.314;7.802;2023-02-23T16:52:51;100191.72;;;9.70;nan
48089;BME280;33867;50.314;7.802;2023-02-23T16:56:13;100191.59;;;9.71;nan
48089;BME280;33867;50.314;7.802;2023-02-23T16:59:35;100206.44;;;9.65;nan
48089;BME280;33867;50.314;7.802;2023-02-23T17:03:27;100210.97;;;9.55;nan
48089;BME280;33867;50.314;7.802;2023-02-23T17:06:47;100212.50;;;9.29;nan
48089;BME280;33867;50.314;7.802;2023-02-23T17:10:35;100206.94;;;9.11;nan
48089;BME280;33867;50.314;7.802;2023-02-23T17:13:54;100210.22;;;9.15;nan
48089;BME280;33867;50.314;7.802;2023-02-23T17:17:15;100218.31;;;9.24;nan
48089;BME280;33867;50.314;7.802;2023-02-23T17:20:34;100223.28;;;9.38;nan
48089;BME280;33867;50.314;7.802;2023-02-23T17:23:53;100223.53;;;9.26;nan
48089;BME280;33867;50.314;7.802;2023-02-23T17:27:20;100228.44;;;9.21;nan
48089;BME280;33867;50.314;7.802;2023-02-23T17:30:39;100226.88;;;9.08;nan
48089;BME280;33867;50.314;7.802;2023-02-23T17:34:00;100232.34;;;8.97;nan
48089;BME280;33867;50.314;7.802;2023-02-23T17:37:19;100230.94;;;8.93;nan
48089;BME280;33867;50.314;7.802;2023-02-23T17:40:38;100239.16;;;9.01;nan
48089;BME280;33867;50.314;7.802;2023-02-23T17:43:57;100229.09;;;8.94;nan
48089;BME280;33867;50.314;7.802;2023-02-23T17:47:18;100225.78;;;8.81;nan
48089;BME280;33867;50.314;7.802;2023-02-23T17:50:37;100229.34;;;8.81;nan
48089;BME280;33867;50.314;7.802;2023-02-23T17:53:59;100225.47;;;8.74;nan
48089;BME280;33867;50.314;7.802;2023-02-23T17:57:23;100220.00;;;8.85;nan
48089;BME280;33867;50.314;7.802;2023-02-23T18:00:46;100228.56;;;8.69;nan
48089;BME280;33867;50.314;7.802;2023-02-23T18:04:06;100220.94;;;8.65;nan
48089;BME280;33867;50.314;7.802;2023-02-23T18:07:27;100217.78;;;8.60;nan
48089;BME280;33867;50.314;7.802;2023-02-23T18:10:51;100234.09;;;8.68;nan
48089;BME280;33867;50.314;7.802;2023-02-23T18:14:10;100231.97;;;8.71;nan
48089;BME280;33867;50.314;7.802;2023-02-23T18:17:32;100229.16;;;8.73;nan
48089;BME280;33867;50.314;7.802;2023-02-23T18:20:57;100235.41;;;8.83;nan
48089;BME280;33867;50.314;7.802;2023-02-23T18:24:19;100229.44;;;8.70;nan
48089;BME280;33867;50.314;7.802;2023-02-23T18:27:38;100224.75;;;8.72;nan
48089;BME280;33867;50.314;7.802;2023-02-23T18:30:57;100237.75;;;8.67;nan
48089;BME280;33867;50.314;7.802;2023-02-23T18:34:16;100229.25;;;8.62;nan
48089;BME280;33867;50.314;7.802;2023-02-23T18:37:35;100229.31;;;8.50;nan
48089;BME280;33867;50.314;7.802;2023-02-23T18:40:54;100232.47;;;8.56;nan
48089;BME280;33867;50.314;7.802;2023-02-23T18:44:15;100226.72;;;8.39;nan
48089;BME280;33867;50.314;7.802;2023-02-23T18:47:34;100227.56;;;8.40;nan
48089;BME280;33867;50.314;7.802;2023-02-23T18:50:56;100227.22;;;8.33;nan
48089;BME280;33867;50.314;7.802;2023-02-23T18:54:17;100231.84;;;8.42;nan
48089;BME280;33867;50.314;7.802;2023-02-23T18:57:36;100228.81;;;8.36;nan
48089;BME280;33867;50.314;7.802;2023-02-23T19:00:55;100231.16;;;8.29;nan
48089;BME280;33867;50.314;7.802;2023-02-23T19:04:14;100226.16;;;8.36;nan
48089;BME280;33867;50.314;7.802;2023-02-23T19:07:34;100223.94;;;8.41;nan
48089;BME280;33867;50.314;7.802;2023-02-23T19:10:53;100231.97;;;8.41;nan
48089;BME280;33867;50.314;7.802;2023-02-23T19:14:14;100219.28;;;8.43;nan
48089;BME280;33867;50.314;7.802;2023-02-23T19:17:34;100227.03;;;8.25;nan
48089;BME280;33867;50.314;7.802;2023-02-23T19:20:54;100230.00;;;8.22;nan
48089;BME280;33867;50.314;7.802;2023-02-23T19:24:13;100225.06;;;8.27;nan
48089;BME280;33867;50.314;7.802;2023-02-23T19:27:32;100225.94;;;8.07;nan
48089;BME280;33867;50.314;7.802;2023-02-23T19:31:07;100230.13;;;8.00;nan
48089;BME280;33867;50.314;7.802;2023-02-23T19:34:26;100239.28;;;7.97;nan